createdAt,value
2023-07-18T01:54:10.900Z,1019.19
2023-07-18T01:55:12.409Z,1019.11
2023-07-18T01:56:13.868Z,1019.10
2023-07-18T01:57:17.004Z,1019.15
2023-07-18T01:58:20.061Z,1019.21
2023-07-18T01:59:21.541Z,1019.19
2023-07-18T02:00:23.245Z,1019.21
2023-07-18T02:01:26.336Z,1019.18
2023-07-18T02:02:29.457Z,1019.11
2023-07-18T02:03:31.040Z,1019.17
2023-07-18T02:04:32.477Z,1019.26
2023-07-18T02:05:33.893Z,1019.20
2023-07-18T02:06:36.942Z,1019.23
2023-07-18T02:07:38.362Z,1019.19
2023-07-18T02:08:39.760Z,1019.21
2023-07-18T02:09:41.167Z,1019.26
2023-07-18T02:10:42.581Z,1019.19
2023-07-18T02:11:44.047Z,1019.19
2023-07-18T02:12:45.464Z,1019.19
2023-07-18T02:13:46.929Z,1019.23
2023-07-18T02:14:48.328Z,1019.18
2023-07-18T02:15:51.395Z,1019.17
2023-07-18T02:16:52.880Z,1019.09
2023-07-18T02:17:56.098Z,1019.15
2023-07-18T02:18:57.575Z,1019.09
2023-07-18T02:20:00.597Z,1019.10
2023-07-18T02:21:03.641Z,1019.08
2023-07-18T02:22:05.052Z,1019.06
2023-07-18T02:23:08.090Z,1019.05
2023-07-18T02:24:09.553Z,1019.03
2023-07-18T02:25:10.968Z,1019.10
2023-07-18T02:26:14.073Z,1019.10
2023-07-18T02:27:15.492Z,1019.08
2023-07-18T02:28:16.890Z,1019.06
2023-07-18T02:29:18.290Z,1019.07
2023-07-18T02:30:21.292Z,1019.16
2023-07-18T02:31:23.071Z,1019.13
2023-07-18T02:32:26.355Z,1019.12
2023-07-18T02:33:29.409Z,1019.11
2023-07-18T02:34:32.469Z,1019.09
2023-07-18T02:35:35.464Z,1019.10
2023-07-18T02:36:38.478Z,1019.12
2023-07-18T02:37:39.886Z,1019.17
2023-07-18T02:38:42.935Z,1019.20
2023-07-18T02:39:44.343Z,1019.17
2023-07-18T02:40:47.422Z,1019.20
2023-07-18T02:41:50.458Z,1019.16
2023-07-18T02:42:53.513Z,1019.27
2023-07-18T02:43:54.926Z,1019.18
2023-07-18T02:44:57.932Z,1019.11
2023-07-18T02:46:00.990Z,1019.18
2023-07-18T02:47:04.036Z,1019.16
2023-07-18T02:48:07.168Z,1019.09
2023-07-18T02:49:08.591Z,1019.19
2023-07-18T02:50:11.581Z,1019.15
2023-07-18T02:51:13.051Z,1019.20
2023-07-18T02:52:14.450Z,1019.17
2023-07-18T02:53:15.857Z,1019.18
2023-07-18T02:54:17.267Z,1019.17
2023-07-18T02:55:18.669Z,1019.16
2023-07-18T02:56:21.729Z,1019.13
2023-07-18T02:57:24.787Z,1019.19
2023-07-18T02:58:27.862Z,1019.18
2023-07-18T02:59:29.323Z,1019.06
2023-07-18T03:00:32.348Z,1019.11
2023-07-18T03:01:35.523Z,1019.09
2023-07-18T03:02:38.700Z,1019.06
2023-07-18T03:03:40.164Z,1019.09
2023-07-18T03:04:41.571Z,1019.10
2023-07-18T03:05:44.620Z,1019.09
2023-07-18T03:06:46.022Z,1019.09
2023-07-18T03:07:47.478Z,1019.09
2023-07-18T03:08:48.880Z,1019.07
2023-07-18T03:09:50.277Z,1019.07
2023-07-18T03:10:51.689Z,1019.07
2023-07-18T03:11:54.698Z,1018.99
2023-07-18T03:12:56.755Z,1019.03
2023-07-18T03:13:58.159Z,1019.05
2023-07-18T03:14:59.558Z,1019.06
2023-07-18T03:16:00.969Z,1019.00
2023-07-18T03:17:02.394Z,1019.05
2023-07-18T03:18:05.603Z,1019.05
2023-07-18T03:19:08.594Z,1018.94
2023-07-18T03:20:11.652Z,1018.99
2023-07-18T03:21:14.726Z,1019.00
2023-07-18T03:22:16.127Z,1018.98
2023-07-18T03:23:17.527Z,1019.01
2023-07-18T03:24:19.682Z,1019.03
2023-07-18T03:25:21.110Z,1019.01
2023-07-18T03:26:22.502Z,1019.06
2023-07-18T03:27:25.568Z,1019.03
2023-07-18T03:28:28.621Z,1018.95
2023-07-18T03:29:31.630Z,1018.99
2023-07-18T03:30:33.115Z,1018.99
2023-07-18T03:31:36.172Z,1018.99
2023-07-18T03:32:37.607Z,1018.98
2023-07-18T03:33:40.647Z,1019.01
2023-07-18T03:34:42.058Z,1019.00
2023-07-18T03:35:43.484Z,1018.97
2023-07-18T03:36:46.508Z,1018.96
2023-07-18T03:37:49.558Z,1019.03
2023-07-18T03:38:50.970Z,1018.95
2023-07-18T03:39:52.372Z,1018.98
2023-07-18T03:40:55.428Z,1018.89
2023-07-18T03:41:56.828Z,1018.94
2023-07-18T03:42:59.832Z,1018.89
2023-07-18T03:44:01.240Z,1019.01
2023-07-18T03:45:04.292Z,1018.98
2023-07-18T03:46:05.729Z,1018.90
2023-07-18T03:47:20.296Z,1018.87
2023-07-18T03:48:11.224Z,1018.89
2023-07-18T03:49:14.256Z,1018.85
2023-07-18T03:50:17.321Z,1018.95
2023-07-18T03:51:21.345Z,1018.91
2023-07-18T03:52:22.829Z,1018.96
2023-07-18T03:53:24.289Z,1018.84
2023-07-18T03:54:27.287Z,1018.96
2023-07-18T03:55:30.849Z,1018.91
2023-07-18T03:56:33.864Z,1018.96
2023-07-18T03:57:35.266Z,1018.91
2023-07-18T03:58:36.679Z,1018.96
2023-07-18T03:59:39.729Z,1019.03
2023-07-18T04:00:41.178Z,1019.03
2023-07-18T04:01:42.634Z,1018.96
2023-07-18T04:02:47.157Z,1018.96
2023-07-18T04:03:48.064Z,1019.03
2023-07-18T04:04:49.453Z,1018.91
2023-07-18T04:05:52.471Z,1019.01
2023-07-18T04:06:55.479Z,1018.96
2023-07-18T04:07:58.570Z,1018.99
2023-07-18T04:08:59.969Z,1019.02
2023-07-18T04:10:01.432Z,1019.06
2023-07-18T04:11:02.842Z,1018.91
2023-07-18T04:12:05.956Z,1018.91
2023-07-18T04:13:07.369Z,1018.94
2023-07-18T04:14:08.765Z,1019.00
2023-07-18T04:15:11.818Z,1018.96
2023-07-18T04:16:13.367Z,1018.94
2023-07-18T04:17:14.867Z,1018.88
2023-07-18T04:18:17.925Z,1018.91
2023-07-18T04:19:20.993Z,1018.98
2023-07-18T04:20:22.439Z,1018.92
2023-07-18T04:21:23.848Z,1018.97
2023-07-18T04:22:25.324Z,1018.92
2023-07-18T04:23:28.419Z,1018.95
2023-07-18T04:24:29.886Z,1018.95
2023-07-18T04:25:32.882Z,1019.01
2023-07-18T04:26:35.948Z,1018.98
2023-07-18T04:27:39.022Z,1018.96
2023-07-18T04:28:40.530Z,1018.94
2023-07-18T04:29:41.976Z,1018.94
2023-07-18T04:30:44.975Z,1018.92
2023-07-18T04:31:46.411Z,1018.97
2023-07-18T04:32:49.527Z,1018.98
2023-07-18T04:33:50.989Z,1018.96
2023-07-18T04:34:53.993Z,1018.98
2023-07-18T04:35:57.089Z,1019.02
2023-07-18T04:37:00.108Z,1019.03
2023-07-18T04:38:01.585Z,1019.02
2023-07-18T04:39:02.984Z,1019.01
2023-07-18T04:40:06.003Z,1019.03
2023-07-18T04:41:09.013Z,1019.09
2023-07-18T04:56:46.888Z,1019.23
2023-07-18T04:57:48.298Z,1019.24
2023-07-18T05:00:06.848Z,1019.23
2023-07-18T05:01:09.905Z,1019.27
2023-07-18T05:02:11.340Z,1019.23
2023-07-18T05:03:12.981Z,1019.24
2023-07-18T05:04:14.468Z,1019.31
2023-07-18T05:05:15.953Z,1019.25
2023-07-18T05:06:19.000Z,1019.30
2023-07-18T05:07:22.049Z,1019.28
2023-07-18T05:08:23.457Z,1019.22
2023-07-18T05:09:26.518Z,1019.33
2023-07-18T05:10:27.991Z,1019.30
2023-07-18T05:11:33.159Z,1019.33
2023-07-18T05:12:35.043Z,1019.35
2023-07-18T05:13:38.046Z,1019.38
2023-07-18T05:14:39.560Z,1019.35
2023-07-18T05:15:42.636Z,1019.46
2023-07-18T05:16:44.041Z,1019.45
2023-07-18T05:17:45.528Z,1019.40
2023-07-18T05:20:36.615Z,1019.37
2023-07-18T05:22:30.710Z,1019.42
2023-07-18T05:24:02.303Z,1019.34
2023-07-18T05:28:16.963Z,1019.35
2023-07-18T05:33:16.914Z,1019.51
2023-07-18T05:34:18.434Z,1019.50
2023-07-18T05:35:19.898Z,1019.50
2023-07-18T05:36:21.311Z,1019.57
2023-07-18T05:37:22.782Z,1019.54
2023-07-18T05:38:46.808Z,1019.59
2023-07-18T05:39:49.858Z,1019.52
2023-07-18T05:40:52.891Z,1019.59
2023-07-18T05:41:54.300Z,1019.56
2023-07-18T05:42:55.710Z,1019.62
2023-07-18T05:43:57.139Z,1019.55
2023-07-18T05:44:58.609Z,1019.58
2023-07-18T05:46:01.712Z,1019.58
2023-07-18T05:47:03.171Z,1019.65
2023-07-18T05:48:06.335Z,1019.67
2023-07-18T05:49:09.418Z,1019.73
2023-07-18T05:50:12.432Z,1019.70
2023-07-18T05:51:13.846Z,1019.70
2023-07-18T05:52:16.908Z,1019.76
2023-07-18T05:53:18.316Z,1019.78
2023-07-18T05:54:19.721Z,1019.82
2023-07-18T05:55:21.168Z,1019.80
2023-07-18T05:56:22.723Z,1019.80
2023-07-18T05:57:25.741Z,1019.82
2023-07-18T05:58:28.820Z,1019.73
2023-07-18T05:59:31.897Z,1019.82
2023-07-18T06:00:35.001Z,1019.71
2023-07-18T06:01:38.047Z,1019.80
2023-07-18T06:02:41.170Z,1019.81
2023-07-18T06:03:44.391Z,1019.75
2023-07-18T06:04:45.872Z,1019.82
2023-07-18T06:05:48.886Z,1019.84
2023-07-18T06:06:50.287Z,1019.84
2023-07-18T06:07:51.738Z,1019.91
2023-07-18T06:08:53.144Z,1019.84
2023-07-18T06:09:54.560Z,1019.91
2023-07-18T06:10:55.958Z,1019.89
2023-07-18T06:11:59.074Z,1019.94
2023-07-18T06:13:00.500Z,1019.89
2023-07-18T06:14:01.937Z,1019.88
2023-07-18T06:15:03.338Z,1019.85
2023-07-18T06:16:04.751Z,1019.85
2023-07-18T06:17:06.301Z,1019.89
2023-07-18T06:18:09.439Z,1019.88
2023-07-18T06:19:10.850Z,1019.85
2023-07-18T06:20:12.251Z,1019.90
2023-07-18T06:21:15.303Z,1019.94
2023-07-18T06:22:18.308Z,1019.88
2023-07-18T06:23:19.762Z,1019.85
2023-07-18T06:24:22.775Z,1019.91
2023-07-18T06:25:24.172Z,1019.88
2023-07-18T06:26:27.268Z,1019.80
2023-07-18T06:27:28.669Z,1019.85
2023-07-18T06:28:31.847Z,1019.91
2023-07-18T06:29:34.896Z,1019.87
2023-07-18T06:30:37.940Z,1019.91
2023-07-18T06:31:39.408Z,1019.91
2023-07-18T06:32:41.193Z,1020.07
2023-07-18T06:33:42.622Z,1020.03
2023-07-18T06:34:44.022Z,1020.07
2023-07-18T06:35:45.422Z,1020.08
2023-07-18T06:36:47.178Z,1020.13
2023-07-18T06:37:49.090Z,1020.14
2023-07-18T06:38:52.148Z,1020.13
2023-07-18T06:39:53.651Z,1020.14
2023-07-18T06:40:56.657Z,1020.08
2023-07-18T06:41:59.710Z,1020.22
2023-07-18T06:43:02.715Z,1020.26
2023-07-18T06:44:05.889Z,1020.25
2023-07-18T06:45:08.896Z,1020.27
2023-07-18T06:46:10.447Z,1020.28
2023-07-18T06:47:13.549Z,1020.25
2023-07-18T06:48:16.575Z,1020.25
2023-07-18T06:49:17.975Z,1020.25
2023-07-18T06:50:19.388Z,1020.20
2023-07-18T06:59:44.656Z,1020.35
2023-07-18T07:00:47.709Z,1020.37
2023-07-18T07:01:50.781Z,1020.34
2023-07-18T07:02:52.262Z,1020.38
2023-07-18T07:09:44.055Z,1020.61
2023-07-18T07:10:45.522Z,1020.59
2023-07-18T07:11:48.645Z,1020.56
2023-07-18T07:12:51.644Z,1020.65
2023-07-18T07:13:54.657Z,1020.59
2023-07-18T07:14:56.078Z,1020.66
2023-07-18T07:15:59.134Z,1020.70
2023-07-18T07:17:02.227Z,1020.71
2023-07-18T07:18:03.692Z,1020.70
2023-07-18T07:19:06.915Z,1020.69
2023-07-18T07:20:09.980Z,1020.76
2023-07-18T07:21:11.403Z,1020.72
2023-07-18T07:22:14.403Z,1020.66
2023-07-18T07:23:17.537Z,1020.69
2023-07-18T07:24:20.527Z,1020.75
2023-07-18T07:25:23.537Z,1020.69
2023-07-18T07:26:26.554Z,1020.73
2023-07-18T07:27:29.563Z,1020.75
2023-07-18T07:28:32.629Z,1020.78
2023-07-18T07:29:35.682Z,1020.78
2023-07-18T07:30:37.170Z,1020.77
2023-07-18T07:31:38.845Z,1020.81
2023-07-18T07:32:40.416Z,1020.81
2023-07-18T07:33:41.945Z,1020.84
2023-07-18T07:34:44.954Z,1020.79
2023-07-18T07:35:48.066Z,1020.84
2023-07-18T07:36:51.085Z,1020.81
2023-07-18T07:37:54.149Z,1020.88
2023-07-18T07:39:57.788Z,1020.93
2023-07-18T07:40:59.370Z,1020.86
2023-07-18T07:42:00.771Z,1020.87
2023-07-18T07:43:03.792Z,1020.91
2023-07-18T07:44:05.231Z,1020.91
2023-07-18T07:45:06.648Z,1020.96
2023-07-18T07:46:08.166Z,1020.98
2023-07-18T07:47:11.208Z,1020.96
2023-07-18T07:48:14.292Z,1020.98
2023-07-18T07:49:15.702Z,1021.01
2023-07-18T07:50:18.750Z,1021.04
2023-07-18T07:51:22.011Z,1021.08
2023-07-18T07:52:25.193Z,1021.08
2023-07-18T07:53:26.596Z,1021.11
2023-07-18T07:54:28.035Z,1021.16
2023-07-18T07:55:29.458Z,1021.18
2023-07-18T07:56:32.436Z,1021.22
2023-07-18T07:57:35.499Z,1021.13
2023-07-18T07:58:36.900Z,1021.13
2023-07-18T07:59:52.716Z,1021.22
2023-07-18T08:00:54.115Z,1021.20
2023-07-18T08:01:57.163Z,1021.21
2023-07-18T08:02:58.658Z,1021.30
2023-07-18T08:04:00.261Z,1021.26
2023-07-18T08:05:38.696Z,1021.31
2023-07-18T08:06:41.820Z,1021.35
2023-07-18T08:07:44.829Z,1021.40
2023-07-18T08:08:47.891Z,1021.43
2023-07-18T08:09:50.899Z,1021.45
2023-07-18T08:10:52.294Z,1021.54
2023-07-18T08:11:55.403Z,1021.53
2023-07-18T08:12:56.816Z,1021.54
2023-07-18T08:13:58.235Z,1021.54
2023-07-18T08:15:01.287Z,1021.54
2023-07-18T08:16:02.745Z,1021.54
2023-07-18T08:17:04.200Z,1021.51
2023-07-18T08:18:05.703Z,1021.53
2023-07-18T08:19:08.898Z,1021.63
2023-07-18T08:20:11.916Z,1021.60
2023-07-18T08:21:14.916Z,1021.58
2023-07-18T08:22:18.090Z,1021.61
2023-07-18T08:23:19.539Z,1021.66
2023-07-18T08:24:20.937Z,1021.72
2023-07-18T08:25:22.358Z,1021.64
2023-07-18T08:26:25.423Z,1021.63
2023-07-18T08:27:28.555Z,1021.64
2023-07-18T08:28:31.568Z,1021.63
2023-07-18T08:29:34.830Z,1021.62
2023-07-18T08:30:37.778Z,1021.61
2023-07-18T08:31:39.240Z,1021.61
2023-07-18T08:32:40.662Z,1021.74
2023-07-18T08:33:42.095Z,1021.76
2023-07-18T08:34:45.187Z,1021.70
2023-07-18T08:35:46.606Z,1021.70
2023-07-18T08:36:49.665Z,1021.74
2023-07-18T08:37:51.069Z,1021.76
2023-07-18T08:38:52.492Z,1021.75
2023-07-18T08:39:55.563Z,1021.80
2023-07-18T08:40:58.595Z,1021.84
2023-07-18T08:42:01.655Z,1021.71
2023-07-18T08:43:03.083Z,1021.77
2023-07-18T08:44:04.562Z,1021.79
2023-07-18T08:45:06.019Z,1021.75
2023-07-18T08:46:07.500Z,1021.81
2023-07-18T08:47:08.929Z,1021.85
2023-07-18T08:48:10.351Z,1021.83
2023-07-18T08:49:11.779Z,1021.75
2023-07-18T08:50:14.844Z,1021.76
2023-07-18T08:51:18.678Z,1021.82
2023-07-18T08:52:19.384Z,1021.80
2023-07-18T08:53:20.796Z,1021.79
2023-07-18T08:54:23.806Z,1021.73
2023-07-18T08:55:26.881Z,1021.78
2023-07-18T08:56:29.939Z,1021.73
2023-07-18T08:57:32.949Z,1021.71
2023-07-18T08:58:34.461Z,1021.71
2023-07-18T08:59:37.470Z,1021.71
2023-07-18T09:00:40.531Z,1021.68
2023-07-18T09:01:43.599Z,1021.80
2023-07-18T09:02:46.648Z,1021.75
2023-07-18T09:03:48.141Z,1021.69
2023-07-18T09:04:51.195Z,1021.69
2023-07-18T09:05:52.620Z,1021.70
2023-07-18T09:06:55.669Z,1021.69
2023-07-18T09:07:58.732Z,1021.69
2023-07-18T09:09:01.856Z,1021.67
2023-07-18T09:10:04.862Z,1021.67
2023-07-18T09:11:07.869Z,1021.73
2023-07-18T09:12:10.919Z,1021.72
2023-07-18T09:13:12.373Z,1021.66
2023-07-18T09:14:13.848Z,1021.64
2023-07-18T09:15:15.246Z,1021.61
2023-07-18T09:16:18.263Z,1021.64
2023-07-18T09:17:19.768Z,1021.66
2023-07-18T09:18:22.850Z,1021.76
2023-07-18T09:19:25.964Z,1021.73
2023-07-18T09:20:29.027Z,1021.74
2023-07-18T09:21:30.441Z,1021.69
2023-07-18T09:22:33.668Z,1021.79
2023-07-18T09:23:35.072Z,1021.71
2023-07-18T09:24:38.149Z,1021.67
2023-07-18T09:25:41.495Z,1021.68
2023-07-18T09:26:43.093Z,1021.60
2023-07-18T09:27:44.508Z,1021.65
2023-07-18T09:28:45.911Z,1021.67
2023-07-18T09:29:49.018Z,1021.64
2023-07-18T09:30:52.057Z,1021.68
2023-07-18T09:31:53.507Z,1021.65
2023-07-18T09:32:54.920Z,1021.74
2023-07-18T09:33:57.983Z,1021.67
2023-07-18T09:35:01.014Z,1021.59
2023-07-18T09:36:04.100Z,1021.61
2023-07-18T09:37:05.511Z,1021.70
2023-07-18T09:38:06.972Z,1021.72
2023-07-18T09:39:10.063Z,1021.72
2023-07-18T09:40:11.471Z,1021.74
2023-07-18T09:41:14.536Z,1021.73
2023-07-18T09:42:19.825Z,1021.81
2023-07-18T09:43:19.956Z,1021.74
2023-07-18T09:44:32.494Z,1021.76
2023-07-18T09:45:23.717Z,1021.74
2023-07-18T09:46:26.940Z,1021.79
2023-07-18T09:47:30.097Z,1021.77
2023-07-18T09:48:44.760Z,1021.75
2023-07-18T09:49:34.271Z,1021.72
2023-07-18T09:50:37.325Z,1021.81
2023-07-18T09:51:40.342Z,1021.84
2023-07-18T09:52:43.340Z,1021.84
2023-07-18T09:53:46.403Z,1021.91
2023-07-18T09:54:47.852Z,1021.89
2023-07-18T09:55:50.901Z,1021.84
2023-07-18T09:56:52.310Z,1021.94
2023-07-18T09:57:53.728Z,1021.88
2023-07-18T09:58:55.191Z,1021.97
2023-07-18T09:59:58.243Z,1021.88
2023-07-18T10:00:59.666Z,1021.88
2023-07-18T10:02:02.721Z,1021.92
2023-07-18T10:03:04.262Z,1021.84
2023-07-18T10:04:07.381Z,1021.92
2023-07-18T10:05:10.391Z,1021.85
2023-07-18T10:06:15.996Z,1021.85
2023-07-18T10:07:15.918Z,1021.86
2023-07-18T10:08:18.985Z,1021.94
2023-07-18T10:09:22.009Z,1021.94
2023-07-18T10:10:25.078Z,1021.92
2023-07-18T10:11:26.551Z,1021.94
2023-07-18T10:12:29.563Z,1021.95
2023-07-18T10:13:32.692Z,1021.97
2023-07-18T10:14:35.755Z,1022.01
2023-07-18T10:15:38.828Z,1022.05
2023-07-18T10:16:41.814Z,1021.95
2023-07-18T10:17:44.912Z,1022.01
2023-07-18T10:18:46.353Z,1022.01
2023-07-18T10:19:49.650Z,1021.99
2023-07-18T10:20:51.092Z,1021.98
2023-07-18T10:21:52.506Z,1021.95
2023-07-18T10:22:55.618Z,1021.95
2023-07-18T10:23:58.717Z,1021.94
2023-07-18T10:25:00.125Z,1021.89
2023-07-18T10:26:01.547Z,1021.95
2023-07-18T10:27:04.555Z,1021.96
2023-07-18T10:28:07.632Z,1021.92
2023-07-18T10:29:10.681Z,1021.86
2023-07-18T10:30:12.086Z,1021.91
2023-07-18T10:31:15.154Z,1021.89
2023-07-18T10:32:18.149Z,1021.88
2023-07-18T10:33:21.164Z,1021.84
2023-07-18T10:34:24.222Z,1021.99
2023-07-18T10:35:27.229Z,1021.97
2023-07-18T10:36:30.245Z,1021.95
2023-07-18T10:37:33.418Z,1021.93
2023-07-18T10:38:36.469Z,1021.95
2023-07-18T10:39:37.896Z,1021.86
2023-07-18T10:40:41.179Z,1021.91
2023-07-18T10:41:44.101Z,1021.90
2023-07-18T10:42:47.213Z,1021.92
2023-07-18T10:43:48.619Z,1021.88
2023-07-18T10:44:51.634Z,1021.76
2023-07-18T10:45:53.072Z,1021.91
2023-07-18T10:46:54.672Z,1021.83
2023-07-18T10:47:56.125Z,1021.89
2023-07-18T10:48:59.168Z,1021.92
2023-07-18T10:50:00.567Z,1021.89
2023-07-18T10:51:03.675Z,1021.84
2023-07-18T10:52:05.082Z,1021.89
2023-07-18T10:53:06.480Z,1021.96
2023-07-18T10:54:07.888Z,1021.91
2023-07-18T10:55:10.945Z,1021.87
2023-07-18T10:56:13.996Z,1021.91
2023-07-18T10:57:15.405Z,1021.93
2023-07-18T10:58:18.511Z,1021.88
2023-07-18T10:59:19.917Z,1021.85
2023-07-18T11:00:21.373Z,1021.92
2023-07-18T11:01:23.298Z,1021.85
2023-07-18T11:02:26.753Z,1021.87
2023-07-18T11:03:29.860Z,1021.92
2023-07-18T11:04:31.328Z,1021.90
2023-07-18T11:05:32.749Z,1021.92
2023-07-18T11:06:34.159Z,1021.88
2023-07-18T11:07:35.581Z,1021.95
2023-07-18T11:08:36.988Z,1021.96
2023-07-18T11:09:40.078Z,1021.93
2023-07-18T11:10:43.127Z,1021.96
2023-07-18T11:11:44.536Z,1021.95
2023-07-18T11:12:45.943Z,1022.00
2023-07-18T11:13:47.412Z,1021.93
2023-07-18T11:14:48.828Z,1021.86
2023-07-18T11:15:51.879Z,1021.93
2023-07-18T11:16:53.323Z,1022.01
2023-07-18T11:17:54.906Z,1022.01
2023-07-18T11:18:56.352Z,1022.01
2023-07-18T11:19:57.761Z,1021.97
2023-07-18T11:21:02.617Z,1022.04
2023-07-18T11:22:02.287Z,1021.93
2023-07-18T11:23:03.738Z,1021.90
2023-07-18T11:24:05.176Z,1021.87
2023-07-18T11:25:08.238Z,1021.94
2023-07-18T11:26:09.725Z,1021.93
2023-07-18T11:27:11.184Z,1022.03
2023-07-18T11:28:14.195Z,1021.94
2023-07-18T11:29:15.595Z,1021.98
2023-07-18T11:30:18.656Z,1022.03
2023-07-18T11:31:35.259Z,1021.99
2023-07-18T11:32:24.208Z,1022.01
2023-07-18T11:33:25.715Z,1021.93
2023-07-18T11:34:27.198Z,1022.02
2023-07-18T11:35:28.660Z,1021.92
2023-07-18T11:36:30.127Z,1021.90
2023-07-18T11:37:36.372Z,1021.99
2023-07-18T11:38:35.657Z,1021.94
2023-07-18T11:39:38.713Z,1021.98
2023-07-18T11:40:41.720Z,1021.88
2023-07-18T11:41:44.732Z,1021.97
2023-07-18T11:42:46.138Z,1022.00
2023-07-18T11:43:47.537Z,1022.00
2023-07-18T11:44:50.544Z,1022.05
2023-07-18T11:45:53.553Z,1021.96
2023-07-18T11:46:56.634Z,1022.01
2023-07-18T11:47:59.970Z,1021.96
2023-07-18T11:49:01.590Z,1021.97
2023-07-18T11:50:04.737Z,1021.93
2023-07-18T11:51:06.152Z,1021.91
2023-07-18T11:52:09.168Z,1021.94
2023-07-18T11:53:10.572Z,1021.95
2023-07-18T11:54:12.048Z,1022.00
2023-07-18T11:55:15.105Z,1021.90
2023-07-18T11:56:18.108Z,1021.90
2023-07-18T11:57:19.567Z,1021.87
2023-07-18T11:58:22.613Z,1021.83
2023-07-18T11:59:24.031Z,1021.86
2023-07-18T12:00:27.064Z,1021.80
2023-07-18T12:01:28.519Z,1021.90
2023-07-18T12:02:31.666Z,1021.94
2023-07-18T12:03:34.897Z,1021.80
2023-07-18T12:04:36.347Z,1021.81
2023-07-18T12:05:39.410Z,1021.82
2023-07-18T12:06:42.486Z,1021.86
2023-07-18T12:07:45.517Z,1021.82
2023-07-18T12:08:48.576Z,1021.79
2023-07-18T12:09:49.985Z,1021.77
2023-07-18T12:11:04.177Z,1021.77
2023-07-18T12:11:53.783Z,1021.73
2023-07-18T12:12:55.185Z,1021.67
2023-07-18T12:13:56.654Z,1021.74
2023-07-18T12:14:59.688Z,1021.82
2023-07-18T12:16:01.124Z,1021.79
2023-07-18T12:17:04.187Z,1021.74
2023-07-18T12:18:07.328Z,1021.66
2023-07-18T12:19:08.765Z,1021.73
2023-07-18T12:20:10.176Z,1021.69
2023-07-18T12:21:15.612Z,1021.76
2023-07-18T12:22:17.227Z,1021.72
2023-07-18T12:23:20.239Z,1021.74
2023-07-18T12:24:23.261Z,1021.70
2023-07-18T12:25:24.724Z,1021.77
2023-07-18T12:26:26.147Z,1021.77
2023-07-18T12:27:27.549Z,1021.74
2023-07-18T12:28:28.952Z,1021.72
2023-07-18T12:29:32.020Z,1021.72
2023-07-18T12:30:33.529Z,1021.71
2023-07-18T12:31:35.019Z,1021.75
2023-07-18T12:32:36.553Z,1021.71
2023-07-18T12:33:39.761Z,1021.74
2023-07-18T12:34:42.883Z,1021.68
2023-07-18T12:35:45.895Z,1021.67
2023-07-18T12:36:47.311Z,1021.66
2023-07-18T12:37:48.757Z,1021.65
2023-07-18T12:38:51.767Z,1021.69
2023-07-18T12:39:54.890Z,1021.64
2023-07-18T12:40:57.936Z,1021.62
2023-07-18T12:41:59.410Z,1021.61
2023-07-18T12:43:00.999Z,1021.68
2023-07-18T12:44:04.185Z,1021.66
2023-07-18T12:45:05.620Z,1021.68
2023-07-18T12:46:07.135Z,1021.67
2023-07-18T12:47:10.277Z,1021.72
2023-07-18T12:48:11.702Z,1021.66
2023-07-18T12:49:13.234Z,1021.63
2023-07-18T12:50:16.345Z,1021.61
2023-07-18T12:51:19.398Z,1021.70
2023-07-18T12:52:22.527Z,1021.68
2023-07-18T12:53:23.931Z,1021.61
2023-07-18T12:54:25.331Z,1021.62
2023-07-18T12:55:26.757Z,1021.65
2023-07-18T12:56:28.159Z,1021.62
2023-07-18T12:57:32.066Z,1021.64
2023-07-18T12:58:33.554Z,1021.65
2023-07-18T12:59:34.965Z,1021.63
2023-07-18T13:00:36.500Z,1021.63
2023-07-18T13:01:37.976Z,1021.56
2023-07-18T13:02:39.475Z,1021.59
2023-07-18T13:03:40.977Z,1021.60
2023-07-18T13:04:42.409Z,1021.61
2023-07-18T13:05:43.841Z,1021.61
2023-07-18T13:06:46.858Z,1021.61
2023-07-18T13:07:48.324Z,1021.60
2023-07-18T13:08:49.716Z,1021.63
2023-07-18T13:09:52.774Z,1021.61
2023-07-18T13:10:55.791Z,1021.57
2023-07-18T13:11:58.909Z,1021.61
2023-07-18T13:13:01.973Z,1021.56
2023-07-18T13:14:05.038Z,1021.60
2023-07-18T13:15:08.112Z,1021.63
2023-07-18T13:16:09.613Z,1021.60
2023-07-18T13:17:11.032Z,1021.58
2023-07-18T13:18:12.565Z,1021.52
2023-07-18T13:19:15.663Z,1021.49
2023-07-18T13:20:17.145Z,1021.44
2023-07-18T13:21:18.545Z,1021.46
2023-07-18T13:22:20.013Z,1021.46
2023-07-18T13:23:23.075Z,1021.44
2023-07-18T13:24:24.490Z,1021.52
2023-07-18T13:25:25.908Z,1021.58
2023-07-18T13:26:27.298Z,1021.48
2023-07-18T13:27:30.310Z,1021.56
2023-07-18T13:28:33.370Z,1021.56
2023-07-18T13:29:34.835Z,1021.46
2023-07-18T13:30:37.855Z,1021.49
2023-07-18T13:31:39.354Z,1021.45
2023-07-18T13:32:40.831Z,1021.45
2023-07-18T13:33:42.251Z,1021.45
2023-07-18T13:34:43.675Z,1021.40
2023-07-18T13:35:46.809Z,1021.41
2023-07-18T13:36:49.861Z,1021.42
2023-07-18T13:37:51.313Z,1021.45
2023-07-18T13:38:54.326Z,1021.37
2023-07-18T13:39:57.702Z,1021.40
2023-07-18T13:41:00.402Z,1021.38
2023-07-18T13:42:03.415Z,1021.38
2023-07-18T13:43:06.414Z,1021.34
2023-07-18T13:44:08.905Z,1021.36
2023-07-18T13:45:11.927Z,1021.34
2023-07-18T13:46:13.989Z,1021.42
2023-07-18T13:47:15.605Z,1021.36
2023-07-18T13:48:19.458Z,1021.38
2023-07-18T13:49:20.895Z,1021.38
2023-07-18T13:50:31.371Z,1021.25
2023-07-18T13:51:26.445Z,1021.24
2023-07-18T13:52:29.472Z,1021.29
2023-07-18T13:53:32.648Z,1021.24
2023-07-18T13:54:35.702Z,1021.28
2023-07-18T13:55:37.134Z,1021.25
2023-07-18T13:56:40.267Z,1021.34
2023-07-18T13:57:43.411Z,1021.28
2023-07-18T13:58:46.411Z,1021.32
2023-07-18T13:59:47.950Z,1021.31
2023-07-18T14:00:49.360Z,1021.27
2023-07-18T14:01:52.422Z,1021.32
2023-07-18T14:02:55.542Z,1021.25
2023-07-18T14:03:57.066Z,1021.31
2023-07-18T14:04:58.486Z,1021.32
2023-07-18T14:05:59.963Z,1021.22
2023-07-18T14:07:01.423Z,1021.26
2023-07-18T14:08:02.858Z,1021.26
2023-07-18T14:09:05.915Z,1021.27
2023-07-18T14:10:09.018Z,1021.23
2023-07-18T14:11:10.413Z,1021.20
2023-07-18T14:12:11.827Z,1021.21
2023-07-18T14:13:13.301Z,1021.17
2023-07-18T14:14:14.704Z,1021.12
2023-07-18T14:15:17.778Z,1021.17
2023-07-18T14:16:21.111Z,1021.17
2023-07-18T14:17:22.833Z,1021.12
2023-07-18T14:18:25.839Z,1021.15
2023-07-18T14:19:27.324Z,1021.15
2023-07-18T14:20:28.727Z,1021.09
2023-07-18T14:21:31.781Z,1021.16
2023-07-18T14:22:33.218Z,1021.12
2023-07-18T14:23:34.675Z,1021.11
2023-07-18T14:24:36.149Z,1021.11
2023-07-18T14:25:39.213Z,1021.06
2023-07-18T14:26:40.612Z,1021.13
2023-07-18T14:27:42.024Z,1021.19
2023-07-18T14:28:45.089Z,1021.14
2023-07-18T14:29:46.490Z,1021.05
2023-07-18T14:30:47.904Z,1021.11
2023-07-18T14:31:51.027Z,1021.11
2023-07-18T14:32:54.158Z,1021.08
2023-07-18T14:34:05.335Z,1021.04
2023-07-18T14:34:57.944Z,1021.07
2023-07-18T14:35:59.357Z,1021.14
2023-07-18T14:37:02.364Z,1021.09
2023-07-18T14:38:05.427Z,1021.14
2023-07-18T14:39:08.499Z,1021.14
2023-07-18T14:40:10.057Z,1021.12
2023-07-18T14:41:13.266Z,1021.14
2023-07-18T14:42:14.668Z,1021.14
2023-07-18T14:43:17.667Z,1021.14
2023-07-18T14:44:19.067Z,1021.11
2023-07-18T14:45:22.072Z,1021.12
2023-07-18T14:46:25.332Z,1021.12
2023-07-18T14:47:27.092Z,1021.09
2023-07-18T14:48:30.357Z,1021.12
2023-07-18T14:49:33.235Z,1021.15
2023-07-18T14:50:36.233Z,1021.06
2023-07-18T14:51:37.652Z,1021.07
2023-07-18T14:52:40.651Z,1021.04
2023-07-18T14:53:42.163Z,1021.16
2023-07-18T14:54:43.603Z,1021.06
2023-07-18T14:55:45.017Z,1021.12
2023-07-18T14:56:48.013Z,1021.04
2023-07-18T14:57:51.096Z,1021.07
2023-07-18T14:58:54.101Z,1021.01
2023-07-18T14:59:55.572Z,1021.10
2023-07-18T15:00:58.712Z,1021.07
2023-07-18T15:02:00.114Z,1021.11
2023-07-18T15:03:03.245Z,1021.03
2023-07-18T15:04:04.708Z,1021.08
2023-07-18T15:05:06.242Z,1021.04
2023-07-18T15:06:07.647Z,1021.08
2023-07-18T15:07:10.667Z,1021.06
2023-07-18T15:08:13.750Z,1021.08
2023-07-18T15:09:15.208Z,1021.13